createdAt,value
2023-02-08T00:00:59.604Z,-0.95
2023-02-08T00:03:29.111Z,-0.88
2023-02-08T00:05:56.643Z,-0.75
2023-02-08T00:08:24.036Z,-0.63
2023-02-08T00:10:51.761Z,-0.81
2023-02-08T00:13:19.397Z,-0.67
2023-02-08T00:15:47.243Z,-0.61
2023-02-08T00:18:15.120Z,-0.64
2023-02-08T00:20:43.400Z,-0.70
2023-02-08T00:23:11.475Z,-0.87
2023-02-08T00:25:39.880Z,-0.68
2023-02-08T00:28:09.481Z,-0.43
2023-02-08T00:30:37.170Z,-0.37
2023-02-08T00:33:05.110Z,-0.40
2023-02-08T00:35:32.600Z,-0.27
2023-02-08T00:38:00.111Z,-0.24
2023-02-08T00:40:28.263Z,-0.12
2023-02-08T00:42:57.770Z,-0.17
2023-02-08T00:45:25.256Z,-0.28
2023-02-08T00:47:53.049Z,-0.08
2023-02-08T00:50:21.393Z,0.09
2023-02-08T00:52:48.813Z,0.01
2023-02-08T00:55:16.605Z,0.09
2023-02-08T00:57:44.036Z,0.01
2023-02-08T01:00:12.058Z,0.22
2023-02-08T01:02:39.771Z,0.24
2023-02-08T01:05:07.425Z,0.19
2023-02-08T01:07:37.493Z,0.32
2023-02-08T01:10:06.419Z,0.31
2023-02-08T01:12:35.243Z,0.28
2023-02-08T01:15:02.710Z,0.43
2023-02-08T01:17:31.180Z,0.48
2023-02-08T01:19:58.576Z,0.58
2023-02-08T01:22:26.034Z,0.57
2023-02-08T01:24:53.718Z,0.78
2023-02-08T01:27:21.099Z,0.59
2023-02-08T01:29:48.442Z,0.87
2023-02-08T01:32:16.122Z,0.81
2023-02-08T01:34:44.282Z,0.77
2023-02-08T01:37:11.914Z,0.91
2023-02-08T01:39:39.607Z,0.87
2023-02-08T01:42:07.038Z,0.83
2023-02-08T01:45:11.906Z,0.85
2023-02-08T01:47:39.692Z,0.66
2023-02-08T01:50:07.318Z,0.95
2023-02-08T01:52:34.854Z,1.04
2023-02-08T01:55:10.163Z,0.89
2023-02-08T01:57:37.699Z,0.97
2023-02-08T02:00:15.232Z,1.12
2023-02-08T02:02:44.377Z,1.13
2023-02-08T02:05:12.427Z,1.27
2023-02-08T02:07:39.999Z,1.35
2023-02-08T02:10:25.714Z,1.40
2023-02-08T02:12:55.928Z,1.41
2023-02-08T02:15:23.690Z,1.38
2023-02-08T02:17:51.422Z,1.53
2023-02-08T02:20:22.873Z,1.35
2023-02-08T02:23:16.858Z,1.39
2023-02-08T02:26:11.036Z,1.50
2023-02-08T02:28:47.619Z,1.52
2023-02-08T02:31:15.312Z,1.41
2023-02-08T02:33:48.727Z,1.40
2023-02-08T02:37:02.942Z,1.51
2023-02-08T02:39:34.252Z,1.45
2023-02-08T02:42:29.445Z,1.52
2023-02-08T02:45:02.763Z,1.62
2023-02-08T02:47:38.994Z,1.52
2023-02-08T02:50:32.246Z,1.56
2023-02-08T02:53:26.787Z,1.54
2023-02-08T02:56:02.007Z,1.58
2023-02-08T02:58:31.294Z,1.42
2023-02-08T03:00:59.416Z,1.63
2023-02-08T03:03:28.789Z,1.47
2023-02-08T03:05:59.979Z,1.33
2023-02-08T03:08:33.560Z,1.43
2023-02-08T03:11:11.056Z,1.06
2023-02-08T03:14:01.048Z,1.25
2023-02-08T03:16:38.459Z,1.59
2023-02-08T03:19:24.501Z,1.69
2023-02-08T03:21:59.286Z,1.85
2023-02-08T03:24:26.665Z,2.12
2023-02-08T03:27:03.822Z,2.13
2023-02-08T03:30:08.454Z,2.06
2023-02-08T03:32:40.455Z,1.99
2023-02-08T03:35:11.781Z,2.16
2023-02-08T03:37:47.755Z,2.01
2023-02-08T03:40:22.862Z,2.07
2023-02-08T03:42:53.085Z,2.03
2023-02-08T03:45:24.134Z,2.23
2023-02-08T03:47:53.457Z,2.34
2023-02-08T03:50:21.781Z,2.36
2023-02-08T03:52:50.796Z,2.46
2023-02-08T03:55:22.234Z,2.35
2023-02-08T03:58:05.278Z,2.11
2023-02-08T04:00:36.654Z,2.19
2023-02-08T04:03:12.338Z,2.26
2023-02-08T04:05:40.085Z,2.29
2023-02-08T04:08:07.936Z,2.35
2023-02-08T04:10:35.291Z,2.23
2023-02-08T04:13:02.727Z,2.19
2023-02-08T04:15:31.081Z,2.10
2023-02-08T04:17:58.564Z,2.26
2023-02-08T04:20:25.976Z,2.17
2023-02-08T04:22:53.675Z,2.37
2023-02-08T04:25:21.247Z,2.29
2023-02-08T04:27:48.696Z,2.39
2023-02-08T04:30:16.497Z,2.54
2023-02-08T04:32:44.196Z,2.77
2023-02-08T04:35:11.557Z,2.64
2023-02-08T04:37:39.226Z,2.73
2023-02-08T04:40:06.887Z,2.70
2023-02-08T04:42:35.036Z,2.78
2023-02-08T04:45:02.801Z,2.99
2023-02-08T04:47:30.236Z,2.93
2023-02-08T04:49:57.641Z,2.88
2023-02-08T04:52:25.302Z,2.84
2023-02-08T04:54:52.658Z,2.80
2023-02-08T04:57:20.090Z,3.01
2023-02-08T04:59:47.931Z,2.91
2023-02-08T05:02:15.343Z,2.94
2023-02-08T05:04:42.715Z,3.04
2023-02-08T05:07:10.360Z,2.94
2023-02-08T05:09:37.748Z,3.08
2023-02-08T05:12:05.316Z,2.96
2023-02-08T05:14:33.000Z,3.09
2023-02-08T05:17:00.420Z,3.03
2023-02-08T05:19:27.904Z,3.09
2023-02-08T05:21:55.584Z,3.03
2023-02-08T05:24:23.039Z,3.21
2023-02-08T05:26:50.575Z,3.02
2023-02-08T05:29:18.234Z,2.96
2023-02-08T05:31:45.717Z,3.00
2023-02-08T05:34:13.158Z,2.96
2023-02-08T05:36:40.801Z,3.06
2023-02-08T05:39:08.513Z,2.86
2023-02-08T05:41:36.138Z,2.86
2023-02-08T05:44:03.865Z,2.88
2023-02-08T05:46:31.353Z,2.89
2023-02-08T05:48:58.833Z,2.87
2023-02-08T05:51:26.664Z,2.83
2023-02-08T05:53:54.072Z,2.83
2023-02-08T05:56:21.447Z,2.77
2023-02-08T05:58:49.118Z,2.73
2023-02-08T06:01:16.569Z,2.72
2023-02-08T06:03:44.236Z,2.64
2023-02-08T06:06:11.855Z,2.81
2023-02-08T06:08:40.206Z,2.74
2023-02-08T06:11:08.020Z,2.65
2023-02-08T06:13:35.457Z,2.55
2023-02-08T06:16:02.874Z,2.51
2023-02-08T06:18:30.529Z,2.46
2023-02-08T06:20:58.063Z,2.44
2023-02-08T06:23:25.494Z,2.55
2023-02-08T06:25:53.545Z,2.49
2023-02-08T06:28:20.979Z,2.71
2023-02-08T06:30:52.048Z,2.65
2023-02-08T06:33:19.769Z,2.67
2023-02-08T06:35:48.137Z,2.67
2023-02-08T06:38:15.593Z,2.85
2023-02-08T06:40:43.533Z,2.84
2023-02-08T06:43:11.295Z,2.85
2023-02-08T06:45:38.700Z,2.96
2023-02-08T06:48:06.442Z,2.87
2023-02-08T06:50:33.995Z,2.91
2023-02-08T06:53:01.435Z,2.96
2023-02-08T06:55:29.131Z,3.05
2023-02-08T06:57:56.866Z,3.20
2023-02-08T07:00:24.327Z,3.22
2023-02-08T07:02:52.646Z,3.27
2023-02-08T07:05:20.023Z,3.35
2023-02-08T07:07:48.750Z,3.42
2023-02-08T07:10:16.925Z,3.50
2023-02-08T07:12:44.345Z,3.50
2023-02-08T07:15:13.322Z,3.59
2023-02-08T07:17:41.126Z,3.63
2023-02-08T07:20:09.618Z,3.93
2023-02-08T07:22:37.600Z,3.82
2023-02-08T07:25:07.212Z,3.91
2023-02-08T07:27:35.629Z,3.98
2023-02-08T07:30:03.431Z,4.07
2023-02-08T07:32:33.689Z,4.08
2023-02-08T07:35:02.060Z,4.12
2023-02-08T07:37:29.445Z,4.09
2023-02-08T07:39:57.152Z,4.18
2023-02-08T07:42:24.513Z,4.15
2023-02-08T07:44:52.662Z,4.28
2023-02-08T07:47:20.458Z,4.27
2023-02-08T07:49:47.878Z,4.35
2023-02-08T07:52:15.408Z,4.34
2023-02-08T07:54:43.073Z,4.17
2023-02-08T07:57:10.468Z,4.46
2023-02-08T07:59:37.865Z,4.40
2023-02-08T08:02:05.573Z,4.54
2023-02-08T08:04:33.322Z,4.56
2023-02-08T08:07:00.736Z,4.51
2023-02-08T08:09:28.219Z,4.45
2023-02-08T08:11:55.925Z,4.56
2023-02-08T08:14:23.314Z,4.41
2023-02-08T08:16:50.674Z,4.57
2023-02-08T08:19:18.381Z,4.82
2023-02-08T08:21:45.837Z,4.86
2023-02-08T08:24:13.182Z,4.99
2023-02-08T08:26:40.947Z,4.94
2023-02-08T08:29:08.378Z,4.87
2023-02-08T08:31:36.843Z,4.76
2023-02-08T08:34:04.567Z,4.77
2023-02-08T08:36:32.203Z,4.79
2023-02-08T08:38:59.570Z,4.69
2023-02-08T08:41:28.276Z,4.50
2023-02-08T08:43:55.943Z,4.69
2023-02-08T08:46:23.421Z,4.80
2023-02-08T08:48:52.063Z,5.04
2023-02-08T08:51:19.794Z,4.92
2023-02-08T08:53:47.218Z,4.98
2023-02-08T08:56:14.877Z,5.18
2023-02-08T08:58:43.389Z,5.17
2023-02-08T09:01:10.880Z,4.78
2023-02-08T09:03:38.611Z,5.14
2023-02-08T09:06:06.250Z,5.26
2023-02-08T09:08:33.703Z,5.26
2023-02-08T09:11:08.751Z,5.18
2023-02-08T09:13:36.391Z,4.96
2023-02-08T09:16:17.635Z,4.91
2023-02-08T09:18:45.661Z,5.18
2023-02-08T09:21:15.961Z,5.19
2023-02-08T09:23:43.722Z,5.03
2023-02-08T09:26:12.948Z,5.23
2023-02-08T09:28:40.698Z,5.37
2023-02-08T09:31:31.879Z,5.55
2023-02-08T09:34:00.895Z,5.23
2023-02-08T09:36:40.648Z,5.32
2023-02-08T09:39:14.933Z,5.09
2023-02-08T09:42:20.847Z,5.03
2023-02-08T09:45:10.054Z,5.10
2023-02-08T09:48:01.162Z,5.12
2023-02-08T09:50:42.728Z,4.94
2023-02-08T09:53:24.778Z,5.30
2023-02-08T09:56:07.514Z,5.19
2023-02-08T09:58:41.863Z,5.29
2023-02-08T10:01:19.339Z,5.36
2023-02-08T10:03:47.417Z,5.54
2023-02-08T10:06:17.083Z,5.52
2023-02-08T10:08:45.398Z,5.57
2023-02-08T10:11:29.205Z,5.45
2023-02-08T10:14:23.186Z,5.48
2023-02-08T10:16:53.813Z,5.71
2023-02-08T10:19:42.241Z,5.85
2023-02-08T10:22:21.707Z,5.68
2023-02-08T10:24:57.926Z,5.93
2023-02-08T10:28:02.754Z,5.84
2023-02-08T10:30:42.250Z,5.77
2023-02-08T10:33:21.727Z,5.95
2023-02-08T10:35:50.776Z,6.11
2023-02-08T10:38:21.125Z,6.01
2023-02-08T10:40:52.326Z,5.89
2023-02-08T10:43:19.937Z,5.78
2023-02-08T10:45:49.728Z,5.70
2023-02-08T10:48:35.422Z,5.79
2023-02-08T10:51:03.750Z,6.08
2023-02-08T10:53:31.346Z,6.17
2023-02-08T10:55:58.730Z,6.08
2023-02-08T10:58:26.720Z,6.04
2023-02-08T11:00:54.334Z,6.27
2023-02-08T11:03:24.396Z,6.48
2023-02-08T11:05:52.881Z,6.37
2023-02-08T11:08:25.109Z,6.24
2023-02-08T11:11:03.965Z,6.51
2023-02-08T11:13:41.550Z,6.19
2023-02-08T11:16:20.644Z,6.33
2023-02-08T11:18:49.367Z,6.23
2023-02-08T11:21:33.442Z,6.49
2023-02-08T11:24:28.975Z,6.41
2023-02-08T11:26:56.748Z,6.55
2023-02-08T11:29:29.546Z,6.63
2023-02-08T11:32:00.784Z,6.78
2023-02-08T11:34:33.623Z,6.97
2023-02-08T11:37:04.696Z,6.67
2023-02-08T11:39:45.998Z,6.73
2023-02-08T11:42:21.242Z,6.67
2023-02-08T11:44:49.634Z,6.58
2023-02-08T11:47:40.714Z,6.74
2023-02-08T11:50:09.101Z,7.01
2023-02-08T11:52:39.380Z,6.99
2023-02-08T11:55:18.954Z,6.58
2023-02-08T11:58:14.347Z,6.73
2023-02-08T12:00:41.736Z,6.78
2023-02-08T12:03:20.409Z,6.56
2023-02-08T12:05:57.691Z,6.56
2023-02-08T12:08:46.310Z,6.62
2023-02-08T12:11:25.242Z,6.61
2023-02-08T12:14:11.666Z,6.79
2023-02-08T12:16:45.579Z,6.91
2023-02-08T12:19:32.230Z,7.01
2023-02-08T12:22:10.457Z,6.72
2023-02-08T12:24:49.409Z,6.79
2023-02-08T12:27:41.749Z,6.93
2023-02-08T12:30:19.058Z,6.61
2023-02-08T12:33:01.199Z,6.47
2023-02-08T12:36:04.090Z,6.20
2023-02-08T12:39:18.457Z,6.71
2023-02-08T12:42:02.725Z,6.45
2023-02-08T12:44:32.992Z,6.41
2023-02-08T12:47:20.459Z,6.28
2023-02-08T12:50:08.200Z,6.62
2023-02-08T12:52:43.836Z,6.64
2023-02-08T12:55:29.382Z,6.57
2023-02-08T12:58:30.389Z,6.42
2023-02-08T13:01:06.653Z,6.39
2023-02-08T13:03:43.564Z,6.24
2023-02-08T13:06:16.882Z,6.13
2023-02-08T13:08:57.683Z,6.14
2023-02-08T13:11:38.191Z,5.91
2023-02-08T13:14:13.592Z,5.98
2023-02-08T13:16:47.258Z,6.20
2023-02-08T13:19:29.733Z,6.24
2023-02-08T13:21:58.815Z,6.26
2023-02-08T13:24:38.727Z,6.33
2023-02-08T13:27:08.101Z,6.33
2023-02-08T13:29:36.273Z,6.34
2023-02-08T13:32:07.009Z,6.29
2023-02-08T13:34:38.730Z,6.42
2023-02-08T13:37:24.891Z,6.50
2023-02-08T13:40:26.213Z,6.35
2023-02-08T13:43:06.635Z,6.49
2023-02-08T13:45:42.865Z,6.45
2023-02-08T13:48:17.006Z,6.55
2023-02-08T13:50:51.884Z,6.49
2023-02-08T13:53:39.898Z,6.46
2023-02-08T13:56:12.694Z,6.50
2023-02-08T13:58:49.697Z,6.93
2023-02-08T14:01:28.771Z,6.91
2023-02-08T14:04:08.743Z,6.59
2023-02-08T14:06:48.302Z,6.71
2023-02-08T14:09:51.477Z,7.09
2023-02-08T14:12:32.594Z,6.60
2023-02-08T14:15:24.680Z,6.75
2023-02-08T14:17:56.654Z,6.68
2023-02-08T14:20:40.440Z,6.69
2023-02-08T14:23:30.660Z,6.64
2023-02-08T14:26:03.451Z,6.82
2023-02-08T14:28:38.746Z,6.53
2023-02-08T14:31:09.082Z,6.67
2023-02-08T14:33:39.742Z,6.69
2023-02-08T14:36:21.995Z,6.57
2023-02-08T14:39:05.326Z,6.52
2023-02-08T14:41:51.120Z,6.60
2023-02-08T14:44:48.846Z,6.51
2023-02-08T14:47:29.099Z,6.34
2023-02-08T14:50:16.407Z,6.30
2023-02-08T14:53:13.528Z,6.42
2023-02-08T14:55:46.327Z,6.53
2023-02-08T14:58:20.407Z,6.29
2023-02-08T15:00:51.179Z,6.40
2023-02-08T15:03:19.012Z,6.66
2023-02-08T15:06:23.422Z,6.53
2023-02-08T15:08:52.650Z,6.48
2023-02-08T15:11:22.802Z,6.63
2023-02-08T15:13:51.421Z,6.44
2023-02-08T15:16:19.386Z,6.24
2023-02-08T15:18:48.490Z,6.34
2023-02-08T15:21:21.407Z,6.26
2023-02-08T15:24:00.386Z,6.34
2023-02-08T15:26:28.147Z,6.41
2023-02-08T15:28:56.335Z,6.02
2023-02-08T15:31:28.835Z,6.02
2023-02-08T15:33:58.390Z,6.17
2023-02-08T15:36:31.671Z,6.31
2023-02-08T15:39:01.868Z,6.24
2023-02-08T15:41:38.166Z,6.20
2023-02-08T15:44:24.157Z,6.23
2023-02-08T15:46:55.022Z,6.18
2023-02-08T15:49:41.525Z,6.19
2023-02-08T15:52:15.954Z,6.04
2023-02-08T15:54:44.418Z,6.09
2023-02-08T15:57:29.342Z,6.02
2023-02-08T15:59:57.254Z,6.05
2023-02-08T16:02:32.787Z,6.00
2023-02-08T16:05:01.722Z,5.99
2023-02-08T16:07:37.173Z,6.04
2023-02-08T16:10:06.810Z,5.96
2023-02-08T16:12:34.969Z,5.92
2023-02-08T16:15:02.424Z,5.88
2023-02-08T16:17:38.432Z,5.90
2023-02-08T16:20:30.068Z,5.83
2023-02-08T16:23:02.348Z,5.77
2023-02-08T16:25:29.631Z,5.70
2023-02-08T16:27:57.153Z,5.72
2023-02-08T16:30:25.106Z,5.76
2023-02-08T16:32:52.680Z,5.70
2023-02-08T16:35:33.496Z,5.64
2023-02-08T16:38:02.837Z,5.60
2023-02-08T16:40:32.871Z,5.51
2023-02-08T16:43:26.277Z,5.43
2023-02-08T16:46:17.345Z,5.30
2023-02-08T16:48:55.824Z,5.17
2023-02-08T16:51:27.393Z,5.20
2023-02-08T16:53:57.338Z,5.25
2023-02-08T16:56:25.497Z,5.11
2023-02-08T16:58:53.155Z,5.02
2023-02-08T17:01:22.968Z,5.04
2023-02-08T17:03:52.994Z,4.94
2023-02-08T17:06:30.540Z,4.79
2023-02-08T17:08:58.815Z,4.71
2023-02-08T17:11:26.682Z,4.74
2023-02-08T17:13:54.392Z,4.66
2023-02-08T17:16:24.135Z,4.50
2023-02-08T17:18:52.426Z,4.45
2023-02-08T17:21:19.812Z,4.33
2023-02-08T17:23:47.792Z,4.29
2023-02-08T17:26:17.435Z,4.24
2023-02-08T17:28:44.971Z,4.18
2023-02-08T17:31:13.605Z,4.08
2023-02-08T17:33:41.392Z,4.09
2023-02-08T17:36:10.751Z,3.95
2023-02-08T17:38:39.471Z,3.92
2023-02-08T17:41:18.396Z,3.94
2023-02-08T17:43:49.903Z,3.89
2023-02-08T17:46:20.362Z,3.87
2023-02-08T17:48:48.514Z,3.88
2023-02-08T17:51:18.535Z,3.85
2023-02-08T17:53:46.250Z,3.88
2023-02-08T17:56:16.181Z,3.76
2023-02-08T17:58:44.506Z,3.71
2023-02-08T18:01:18.035Z,3.77
2023-02-08T18:03:46.990Z,3.74
2023-02-08T18:06:15.207Z,3.58
2023-02-08T18:08:43.172Z,3.56
2023-02-08T18:11:13.039Z,3.61
2023-02-08T18:13:40.520Z,3.58
2023-02-08T18:16:16.970Z,3.63
2023-02-08T18:18:44.934Z,3.56
2023-02-08T18:21:17.461Z,3.55
2023-02-08T18:23:46.244Z,3.51
2023-02-08T18:26:16.449Z,3.40
2023-02-08T18:28:44.848Z,3.53
2023-02-08T18:31:15.224Z,3.45
2023-02-08T18:33:43.726Z,3.32
2023-02-08T18:36:12.416Z,3.51
2023-02-08T18:38:41.638Z,3.31
2023-02-08T18:41:10.341Z,3.31
2023-02-08T18:43:39.643Z,3.33
2023-02-08T18:46:09.924Z,3.31
2023-02-08T18:48:38.841Z,3.29
2023-02-08T18:51:07.447Z,3.37
2023-02-08T18:53:37.350Z,3.16
2023-02-08T18:56:06.636Z,3.12
2023-02-08T18:58:34.713Z,3.17
2023-02-08T19:01:11.391Z,3.14
2023-02-08T19:03:39.062Z,3.20
2023-02-08T19:06:09.364Z,3.09
2023-02-08T19:08:37.717Z,3.02
2023-02-08T19:11:06.022Z,3.00
2023-02-08T19:13:35.496Z,2.89
2023-02-08T19:16:02.967Z,2.79
2023-02-08T19:18:30.452Z,2.89
2023-02-08T19:21:10.566Z,2.87
2023-02-08T19:23:38.151Z,2.92
2023-02-08T19:26:14.640Z,2.85
2023-02-08T19:28:42.143Z,2.71
2023-02-08T19:31:15.789Z,2.74
2023-02-08T19:33:45.544Z,2.73
2023-02-08T19:36:19.552Z,2.71
2023-02-08T19:38:48.290Z,2.78
2023-02-08T19:41:22.428Z,2.73
2023-02-08T19:43:50.097Z,2.63
2023-02-08T19:46:22.185Z,2.73
2023-02-08T19:48:50.842Z,2.63
2023-02-08T19:51:19.456Z,2.69
2023-02-08T19:53:47.314Z,2.60
2023-02-08T19:56:16.670Z,2.58
2023-02-08T19:58:45.225Z,2.59
2023-02-08T20:01:20.660Z,2.61
2023-02-08T20:03:50.045Z,2.60
2023-02-08T20:06:24.848Z,2.71
2023-02-08T20:08:53.285Z,2.68
2023-02-08T20:11:25.796Z,2.56
2023-02-08T20:13:54.796Z,2.56
2023-02-08T20:16:22.721Z,2.64
2023-02-08T20:18:50.534Z,2.46
2023-02-08T20:21:18.801Z,2.59
2023-02-08T20:23:47.345Z,2.47
2023-02-08T20:26:26.533Z,2.46
2023-02-08T20:28:58.712Z,2.47
2023-02-08T20:31:31.474Z,2.39
2023-02-08T20:34:03.376Z,2.43
2023-02-08T20:36:33.367Z,2.39
2023-02-08T20:39:01.113Z,2.32
2023-02-08T20:41:31.149Z,2.24
2023-02-08T20:43:58.752Z,2.25
2023-02-08T20:46:30.693Z,2.23
2023-02-08T20:49:00.039Z,2.30
2023-02-08T20:51:28.794Z,2.32
2023-02-08T20:53:57.385Z,2.32
2023-02-08T20:56:27.967Z,2.10
2023-02-08T20:58:55.868Z,2.03
2023-02-08T21:01:27.763Z,2.35
2023-02-08T21:03:56.360Z,2.11
2023-02-08T21:06:32.326Z,2.03
2023-02-08T21:09:03.020Z,1.90
2023-02-08T21:11:31.703Z,1.96
2023-02-08T21:14:00.438Z,2.03
2023-02-08T21:16:28.193Z,2.03
2023-02-08T21:18:57.234Z,1.91
2023-02-08T21:21:25.678Z,1.95
2023-02-08T21:23:53.136Z,1.83
2023-02-08T21:26:21.229Z,1.70
2023-02-08T21:28:52.390Z,1.79
2023-02-08T21:31:22.095Z,1.76
2023-02-08T21:33:50.948Z,1.89
2023-02-08T21:36:21.080Z,1.75
2023-02-08T21:38:48.533Z,1.76
2023-02-08T21:41:20.424Z,1.75
2023-02-08T21:43:48.509Z,1.59
2023-02-08T21:46:17.034Z,1.59
2023-02-08T21:49:03.293Z,1.66
2023-02-08T21:51:49.601Z,1.47
2023-02-08T21:54:31.538Z,1.34
2023-02-08T21:57:00.465Z,1.44
2023-02-08T21:59:28.624Z,1.28
2023-02-08T22:01:56.018Z,1.26
2023-02-08T22:04:23.675Z,1.20
2023-02-08T22:06:52.095Z,1.34
2023-02-08T22:09:20.703Z,1.42
2023-02-08T22:15:30.584Z,1.19
2023-02-08T22:18:00.689Z,1.10
2023-02-08T22:20:29.210Z,0.93
2023-02-08T22:22:56.714Z,0.96
2023-02-08T22:25:24.434Z,0.73
2023-02-08T22:27:51.990Z,1.05
2023-02-08T22:30:19.893Z,1.05
2023-02-08T22:32:49.050Z,0.96
2023-02-08T22:35:17.746Z,1.04
2023-02-08T22:37:45.218Z,0.85
2023-02-08T22:40:13.281Z,0.84
2023-02-08T22:42:41.369Z,0.68
2023-02-08T22:45:09.006Z,0.77
2023-02-08T22:47:36.765Z,0.80
2023-02-08T22:50:05.577Z,0.75
2023-02-08T22:52:34.525Z,0.74
2023-02-08T22:55:04.123Z,0.68
2023-02-08T22:57:32.247Z,0.66
2023-02-08T22:59:59.700Z,0.65
2023-02-08T23:02:27.512Z,0.59
2023-02-08T23:04:54.978Z,0.61
2023-02-08T23:07:22.359Z,0.63
2023-02-08T23:09:50.128Z,0.51
2023-02-08T23:12:17.480Z,0.49
2023-02-08T23:14:44.874Z,0.37
2023-02-08T23:17:12.667Z,0.29
2023-02-08T23:19:40.897Z,0.33
2023-02-08T23:22:08.586Z,0.40
2023-02-08T23:24:36.217Z,0.36
2023-02-08T23:27:03.714Z,0.31
2023-02-08T23:29:31.138Z,0.43
2023-02-08T23:31:58.861Z,0.21
2023-02-08T23:34:26.260Z,0.36
2023-02-08T23:36:53.659Z,0.25
2023-02-08T23:39:21.328Z,0.19
2023-02-08T23:41:48.672Z,0.21
2023-02-08T23:44:16.068Z,0.15
2023-02-08T23:46:43.749Z,0.17
2023-02-08T23:49:11.191Z,0.17
2023-02-08T23:51:38.574Z,0.06
2023-02-08T23:54:06.350Z,0.03
2023-02-08T23:56:33.789Z,0.03
2023-02-08T23:59:01.193Z,0.04
